Time;durP1;ratioP1;P1;durP2;ratioP2;P2;SDS_P1;SDS_P2;PMS_P1;PMS_P2;Temp;Humidity;BMP_temperature;BMP_pressure;BME280_temperature;BME280_humidity;BME280_pressure;Samples;Min_cycle;Max_cycle;Signal;HPM_P1;HPM_P2
2021/09/06 00:02:19;;;;;;;;;;;14.60;94.40;;;;;;5072758;28;19919;-69
2021/09/06 00:04:46;;;;;;;;;;;14.70;93.70;;;;;;5105083;28;20328;-68
2021/09/06 00:07:12;;;;;;;;;;;14.80;92.80;;;;;;5072525;28;19999;-68
2021/09/06 00:09:40;;;;;;;;;;;14.80;92.50;;;;;;5072275;28;19958;-68
2021/09/06 00:12:08;;;;;;;;;;;14.80;92.60;;;;;;5072685;28;20007;-68
2021/09/06 00:14:35;;;;;;;;;;;14.80;92.00;;;;;;5072375;28;19913;-68
2021/09/06 00:17:02;;;;;;;;;;;14.90;91.90;;;;;;5071966;28;19908;-69
2021/09/06 00:19:28;;;;;;;;;;;14.90;91.20;;;;;;5072498;28;20023;-69
2021/09/06 00:21:55;;;;;;;;;;;14.90;90.80;;;;;;5072269;28;20355;-69
2021/09/06 00:24:22;;;;;;;;;;;15.00;91.30;;;;;;5072199;28;19919;-69
2021/09/06 00:26:48;;;;;;;;;;;15.10;91.40;;;;;;5072349;28;19959;-69
2021/09/06 00:29:15;;;;;;;;;;;15.20;91.10;;;;;;5072055;28;19991;-69
2021/09/06 00:31:42;;;;;;;;;;;15.30;90.60;;;;;;5072114;28;19920;-69
2021/09/06 00:34:08;;;;;;;;;;;15.50;89.00;;;;;;5072499;28;19909;-69
2021/09/06 00:36:35;;;;;;;;;;;15.60;86.50;;;;;;5072086;28;20324;-69
2021/09/06 00:39:02;;;;;;;;;;;15.60;86.80;;;;;;5072310;28;19987;-69
2021/09/06 00:41:28;;;;;;;;;;;15.60;83.10;;;;;;5072236;28;19908;-68
2021/09/06 00:43:55;;;;;;;;;;;15.70;84.50;;;;;;5072235;28;19946;-68
2021/09/06 00:46:23;;;;;;;;;;;15.80;82.60;;;;;;5071917;28;19921;-68
2021/09/06 00:48:50;;;;;;;;;;;15.90;78.70;;;;;;5072234;28;19916;-68
2021/09/06 00:51:17;;;;;;;;;;;16.00;78.60;;;;;;5071713;28;19917;-68
2021/09/06 00:53:43;;;;;;;;;;;16.10;78.70;;;;;;5071842;28;19909;-69
2021/09/06 00:56:10;;;;;;;;;;;16.20;78.80;;;;;;5072190;28;19912;-68
2021/09/06 00:58:37;;;;;;;;;;;16.20;76.40;;;;;;5072121;28;19916;-68
2021/09/06 01:01:03;;;;;;;;;;;16.40;76.40;;;;;;5071977;28;19908;-68
2021/09/06 01:03:30;;;;;;;;;;;16.30;75.00;;;;;;5071706;28;19912;-68
2021/09/06 01:05:57;;;;;;;;;;;16.50;74.70;;;;;;5071721;28;20382;-68
2021/09/06 01:08:23;;;;;;;;;;;16.40;75.30;;;;;;5071985;28;19967;-68
2021/09/06 01:10:50;;;;;;;;;;;16.70;75.30;;;;;;5071790;28;19967;-68
2021/09/06 01:13:17;;;;;;;;;;;16.90;73.30;;;;;;5071918;28;19908;-69
2021/09/06 01:15:43;;;;;;;;;;;17.10;70.40;;;;;;5071568;28;20415;-68
2021/09/06 01:18:10;;;;;;;;;;;17.10;70.20;;;;;;5071798;28;19916;-68
2021/09/06 01:20:37;;;;;;;;;;;17.00;70.70;;;;;;5071701;28;19979;-68
2021/09/06 01:23:03;;;;;;;;;;;16.80;72.60;;;;;;5071691;28;20227;-68
2021/09/06 01:25:30;;;;;;;;;;;17.10;71.50;;;;;;5071436;28;20355;-68
2021/09/06 01:27:57;;;;;;;;;;;17.30;74.60;;;;;;5073394;28;19909;-68
2021/09/06 01:30:23;;;;;;;;;;;17.30;69.90;;;;;;5075340;28;20046;-68
2021/09/06 01:32:50;;;;;;;;;;;17.30;69.30;;;;;;5075458;28;19982;-68
2021/09/06 01:35:16;;;;;;;;;;;17.20;69.50;;;;;;5075394;28;20006;-68
2021/09/06 01:37:43;;;;;;;;;;;17.10;69.50;;;;;;5074966;28;19913;-70
2021/09/06 01:40:10;;;;;;;;;;;16.90;71.80;;;;;;5075266;28;19919;-69
2021/09/06 01:42:37;;;;;;;;;;;16.90;71.50;;;;;;5075218;28;19908;-68
2021/09/06 01:45:04;;;;;;;;;;;16.80;71.90;;;;;;5075296;28;19915;-69
2021/09/06 01:47:31;;;;;;;;;;;16.70;72.50;;;;;;5074743;28;20412;-68
2021/09/06 01:49:58;;;;;;;;;;;16.70;74.60;;;;;;5074852;28;19999;-68
2021/09/06 01:52:25;;;;;;;;;;;16.70;72.90;;;;;;5075171;28;19909;-68
2021/09/06 01:54:52;;;;;;;;;;;16.60;75.60;;;;;;5075245;28;19915;-68
2021/09/06 01:57:18;;;;;;;;;;;16.60;73.60;;;;;;5074971;28;19915;-68
2021/09/06 01:59:45;;;;;;;;;;;16.70;73.20;;;;;;5074757;28;19909;-67
2021/09/06 02:02:12;;;;;;;;;;;16.80;72.10;;;;;;5075065;28;19912;-68
2021/09/06 02:04:38;;;;;;;;;;;16.80;72.80;;;;;;5074992;28;19916;-67
2021/09/06 02:07:06;;;;;;;;;;;17.00;73.00;;;;;;5074745;28;19908;-68
2021/09/06 02:09:33;;;;;;;;;;;17.00;72.80;;;;;;5074741;28;19934;-68
2021/09/06 02:12:00;;;;;;;;;;;16.80;71.60;;;;;;5074887;28;19924;-68
2021/09/06 02:14:26;;;;;;;;;;;16.70;73.30;;;;;;5074781;28;19920;-68
2021/09/06 02:16:53;;;;;;;;;;;16.70;73.10;;;;;;5074608;28;19912;-68
2021/09/06 02:19:19;;;;;;;;;;;16.80;71.70;;;;;;5074638;28;19974;-68
2021/09/06 02:21:48;;;;;;;;;;;16.80;72.00;;;;;;5074119;28;19915;-68
2021/09/06 02:24:15;;;;;;;;;;;16.50;72.70;;;;;;5074653;28;20347;-68
2021/09/06 02:26:42;;;;;;;;;;;16.30;72.40;;;;;;5074566;28;20009;-68
2021/09/06 02:29:10;;;;;;;;;;;16.00;74.10;;;;;;5074483;28;19995;-68
2021/09/06 02:31:37;;;;;;;;;;;16.10;75.00;;;;;;5074122;28;20403;-67
2021/09/06 02:34:04;;;;;;;;;;;16.20;72.70;;;;;;5074747;28;19954;-68
2021/09/06 02:36:31;;;;;;;;;;;16.30;74.40;;;;;;5074265;28;20015;-68
2021/09/06 02:38:57;;;;;;;;;;;16.50;76.00;;;;;;5072878;28;19943;-69
2021/09/06 02:41:24;;;;;;;;;;;16.60;75.20;;;;;;5074320;28;19934;-68
2021/09/06 02:43:51;;;;;;;;;;;16.80;76.00;;;;;;5074009;28;19912;-68
2021/09/06 02:46:17;;;;;;;;;;;16.80;74.10;;;;;;5073885;28;19928;-68
2021/09/06 02:48:44;;;;;;;;;;;16.70;74.10;;;;;;5074078;28;19959;-68
2021/09/06 02:51:10;;;;;;;;;;;16.60;75.30;;;;;;5073774;28;19916;-68
2021/09/06 02:53:37;;;;;;;;;;;16.60;75.20;;;;;;5073800;28;20275;-68
2021/09/06 02:56:04;;;;;;;;;;;16.70;75.50;;;;;;5074227;28;20363;-68
2021/09/06 02:58:30;;;;;;;;;;;16.80;75.20;;;;;;5073827;28;19909;-68
2021/09/06 03:00:57;;;;;;;;;;;16.80;76.10;;;;;;5073807;28;19909;-69
2021/09/06 03:03:24;;;;;;;;;;;16.70;75.50;;;;;;5073882;28;19908;-69
2021/09/06 03:05:51;;;;;;;;;;;16.80;76.60;;;;;;5073514;28;20367;-69
2021/09/06 03:08:17;;;;;;;;;;;16.70;76.40;;;;;;5073480;28;19909;-69
2021/09/06 03:10:44;;;;;;;;;;;16.60;76.60;;;;;;5073584;28;19923;-69
2021/09/06 03:13:11;;;;;;;;;;;16.70;76.30;;;;;;5073499;28;19962;-69
2021/09/06 03:15:37;;;;;;;;;;;16.60;76.40;;;;;;5073393;28;19931;-68
2021/09/06 03:18:04;;;;;;;;;;;16.60;76.80;;;;;;5073704;28;19915;-68
2021/09/06 03:20:31;;;;;;;;;;;16.70;77.90;;;;;;5073197;28;20031;-69
2021/09/06 03:22:57;;;;;;;;;;;16.70;77.10;;;;;;5073342;28;19908;-69
2021/09/06 03:25:24;;;;;;;;;;;16.70;75.90;;;;;;5073196;28;19909;-69
2021/09/06 03:27:51;;;;;;;;;;;16.70;76.60;;;;;;5072937;28;20003;-68
2021/09/06 03:30:17;;;;;;;;;;;16.80;76.40;;;;;;5073031;28;19990;-68
2021/09/06 03:32:44;;;;;;;;;;;16.70;77.60;;;;;;5073144;28;19943;-68
2021/09/06 03:35:14;;;;;;;;;;;16.80;76.30;;;;;;5073168;28;19913;-68
2021/09/06 03:37:41;;;;;;;;;;;16.70;77.00;;;;;;5073120;28;19909;-68
2021/09/06 03:40:08;;;;;;;;;;;16.50;76.30;;;;;;5072987;28;20267;-68
2021/09/06 03:42:35;;;;;;;;;;;16.50;74.60;;;;;;5072921;28;19912;-69
2021/09/06 03:45:02;;;;;;;;;;;16.50;74.80;;;;;;5072818;28;19908;-69
2021/09/06 03:47:28;;;;;;;;;;;16.60;73.90;;;;;;5072721;28;20278;-69
2021/09/06 03:49:55;;;;;;;;;;;16.60;74.20;;;;;;5072298;28;19947;-68
2021/09/06 03:52:21;;;;;;;;;;;16.50;73.00;;;;;;5072682;28;19913;-68
2021/09/06 03:54:48;;;;;;;;;;;16.50;72.50;;;;;;5072878;28;20359;-68
2021/09/06 03:57:15;;;;;;;;;;;16.40;73.10;;;;;;5072986;28;19908;-68
2021/09/06 03:59:41;;;;;;;;;;;16.30;72.00;;;;;;5072468;28;19962;-68
2021/09/06 04:02:08;;;;;;;;;;;16.30;72.80;;;;;;5072760;28;19930;-68
2021/09/06 04:04:35;;;;;;;;;;;16.40;72.70;;;;;;5072622;28;19962;-68
2021/09/06 04:07:02;;;;;;;;;;;16.40;71.10;;;;;;5072673;28;19908;-68
2021/09/06 04:09:29;;;;;;;;;;;16.40;69.30;;;;;;5072496;28;19916;-69
2021/09/06 04:11:56;;;;;;;;;;;16.50;71.20;;;;;;5073060;28;20117;-68
2021/09/06 04:14:24;;;;;;;;;;;16.40;71.70;;;;;;5073030;28;19909;-68
2021/09/06 04:16:50;;;;;;;;;;;16.60;71.90;;;;;;5072856;28;19958;-68
2021/09/06 04:19:17;;;;;;;;;;;16.60;73.30;;;;;;5072921;28;20331;-68
2021/09/06 04:21:44;;;;;;;;;;;16.50;74.10;;;;;;5071944;28;19909;-68
2021/09/06 04:24:10;;;;;;;;;;;16.50;73.90;;;;;;5074622;28;19912;-68
2021/09/06 04:26:37;;;;;;;;;;;16.50;74.50;;;;;;5072740;28;19912;-68
2021/09/06 04:29:04;;;;;;;;;;;16.50;73.20;;;;;;5072462;28;19998;-68
2021/09/06 04:31:30;;;;;;;;;;;16.40;74.70;;;;;;5072004;28;19921;-67
2021/09/06 04:33:57;;;;;;;;;;;16.40;74.50;;;;;;5072307;28;19912;-70
2021/09/06 04:36:23;;;;;;;;;;;16.20;75.30;;;;;;5072088;28;19916;-68
2021/09/06 04:38:50;;;;;;;;;;;16.30;75.20;;;;;;5072191;28;19991;-68
2021/09/06 04:41:17;;;;;;;;;;;16.40;74.90;;;;;;5072238;28;19919;-69
2021/09/06 04:43:45;;;;;;;;;;;16.40;73.70;;;;;;5071965;28;19977;-68
2021/09/06 04:46:12;;;;;;;;;;;16.30;73.40;;;;;;5071991;28;20391;-68
2021/09/06 04:48:39;;;;;;;;;;;16.30;75.40;;;;;;5071973;28;19916;-68
2021/09/06 04:51:05;;;;;;;;;;;16.30;75.30;;;;;;5071891;28;19917;-68
2021/09/06 04:53:32;;;;;;;;;;;16.30;75.90;;;;;;5071668;28;19924;-68
2021/09/06 04:55:59;;;;;;;;;;;16.30;74.90;;;;;;5072250;28;19908;-69
2021/09/06 04:58:25;;;;;;;;;;;16.30;75.90;;;;;;5072058;28;19909;-68
2021/09/06 05:00:52;;;;;;;;;;;16.30;75.00;;;;;;5071950;28;19908;-69
2021/09/06 05:03:18;;;;;;;;;;;16.40;73.30;;;;;;5074349;28;19934;-69
2021/09/06 05:05:45;;;;;;;;;;;16.30;72.90;;;;;;5075759;28;19916;-69
2021/09/06 05:08:12;;;;;;;;;;;16.20;73.30;;;;;;5075966;28;19908;-69
2021/09/06 05:10:38;;;;;;;;;;;16.20;73.40;;;;;;5075728;28;20271;-69
2021/09/06 05:13:05;;;;;;;;;;;16.20;75.20;;;;;;5075739;28;19916;-68
2021/09/06 05:15:32;;;;;;;;;;;16.10;75.40;;;;;;5075292;28;19908;-68
2021/09/06 05:17:59;;;;;;;;;;;16.00;74.90;;;;;;5075732;28;19909;-69
2021/09/06 05:20:26;;;;;;;;;;;16.00;76.00;;;;;;5075647;28;19909;-68
2021/09/06 05:22:53;;;;;;;;;;;15.90;76.20;;;;;;5075547;28;20002;-69
2021/09/06 05:25:20;;;;;;;;;;;16.00;76.20;;;;;;5075701;28;19969;-68
2021/09/06 05:27:46;;;;;;;;;;;16.10;75.70;;;;;;5075404;28;19962;-68
2021/09/06 05:30:13;;;;;;;;;;;16.00;76.50;;;;;;5075548;28;19927;-69
2021/09/06 05:32:40;;;;;;;;;;;16.00;77.90;;;;;;5075376;28;19966;-69
2021/09/06 05:35:07;;;;;;;;;;;15.90;76.50;;;;;;5075345;28;19909;-68
2021/09/06 05:37:34;;;;;;;;;;;15.90;76.30;;;;;;5075420;28;20286;-69
2021/09/06 05:40:00;;;;;;;;;;;15.90;77.20;;;;;;5075243;28;19912;-68
2021/09/06 05:42:27;;;;;;;;;;;16.00;78.70;;;;;;5075250;28;19912;-69
2021/09/06 05:44:54;;;;;;;;;;;15.90;79.70;;;;;;5075081;28;19916;-69
2021/09/06 05:47:20;;;;;;;;;;;15.90;79.70;;;;;;5074994;28;19948;-69
2021/09/06 05:49:47;;;;;;;;;;;15.90;79.20;;;;;;5074789;28;19908;-69
2021/09/06 05:52:13;;;;;;;;;;;15.90;80.00;;;;;;5074906;28;20002;-69
2021/09/06 05:54:40;;;;;;;;;;;15.90;79.80;;;;;;5075050;28;19965;-68
2021/09/06 05:57:07;;;;;;;;;;;15.80;80.00;;;;;;5074953;28;19916;-69
2021/09/06 05:59:33;;;;;;;;;;;15.80;81.00;;;;;;5074660;28;19944;-69
2021/09/06 06:02:00;;;;;;;;;;;15.80;81.00;;;;;;5074806;28;19919;-69
2021/09/06 06:04:27;;;;;;;;;;;15.80;80.80;;;;;;5074704;28;20352;-69
2021/09/06 06:06:54;;;;;;;;;;;15.80;80.80;;;;;;5074887;28;20354;-69
2021/09/06 06:09:20;;;;;;;;;;;15.80;81.60;;;;;;5074864;28;19989;-69
2021/09/06 06:11:47;;;;;;;;;;;15.80;81.60;;;;;;5074612;28;19917;-69
2021/09/06 06:14:14;;;;;;;;;;;15.80;82.30;;;;;;5074282;28;19915;-68
2021/09/06 06:16:40;;;;;;;;;;;15.90;82.60;;;;;;5074710;28;19908;-68
2021/09/06 06:19:07;;;;;;;;;;;15.80;82.70;;;;;;5074359;28;19908;-68
2021/09/06 06:21:34;;;;;;;;;;;15.80;81.50;;;;;;5074268;28;19919;-68
2021/09/06 06:24:02;;;;;;;;;;;15.70;80.50;;;;;;5074549;28;19939;-70
2021/09/06 06:26:30;;;;;;;;;;;15.70;79.50;;;;;;5074514;28;19932;-70
2021/09/06 06:28:58;;;;;;;;;;;15.60;80.30;;;;;;5074331;28;20390;-68
2021/09/06 06:31:25;;;;;;;;;;;15.50;81.40;;;;;;5074366;28;19916;-68
2021/09/06 06:33:51;;;;;;;;;;;15.50;81.20;;;;;;5074199;28;19909;-68
2021/09/06 06:36:18;;;;;;;;;;;15.50;82.30;;;;;;5074391;28;19909;-68
2021/09/06 06:38:48;;;;;;;;;;;15.40;82.50;;;;;;5074625;28;20279;-68
2021/09/06 06:41:15;;;;;;;;;;;15.40;83.60;;;;;;5074611;28;19999;-68
2021/09/06 06:43:42;;;;;;;;;;;15.40;82.60;;;;;;5074939;28;19912;-68
2021/09/06 06:46:09;;;;;;;;;;;15.40;83.80;;;;;;5074513;28;19967;-68
2021/09/06 06:48:35;;;;;;;;;;;15.40;84.30;;;;;;5075656;28;19962;-67
2021/09/06 06:51:02;;;;;;;;;;;15.40;85.20;;;;;;5075302;28;19912;-68
2021/09/06 06:53:29;;;;;;;;;;;15.30;84.50;;;;;;5072658;28;20438;-68
2021/09/06 06:55:55;;;;;;;;;;;15.30;83.80;;;;;;5072794;28;20291;-67
2021/09/06 06:58:22;;;;;;;;;;;15.20;83.50;;;;;;5072150;28;19927;-68
2021/09/06 07:00:49;;;;;;;;;;;15.20;85.00;;;;;;5072020;28;19913;-68
2021/09/06 07:03:15;;;;;;;;;;;15.20;85.00;;;;;;5071729;28;19954;-68
2021/09/06 07:05:42;;;;;;;;;;;15.20;85.40;;;;;;5070995;28;19917;-68
2021/09/06 07:08:09;;;;;;;;;;;15.20;86.70;;;;;;5071602;28;19915;-68
2021/09/06 07:10:35;;;;;;;;;;;15.20;87.50;;;;;;5071600;28;20003;-68
2021/09/06 07:13:02;;;;;;;;;;;15.20;88.10;;;;;;5071755;28;19909;-68
2021/09/06 07:15:32;;;;;;;;;;;15.20;88.90;;;;;;5071373;28;19918;-68
2021/09/06 07:17:59;;;;;;;;;;;15.20;89.20;;;;;;5071283;28;19955;-68
2021/09/06 07:20:26;;;;;;;;;;;15.10;90.00;;;;;;5071335;28;20364;-68
2021/09/06 07:22:53;;;;;;;;;;;15.10;90.00;;;;;;5071472;28;19995;-68
2021/09/06 07:25:23;;;;;;;;;;;15.10;90.10;;;;;;5070921;28;20331;-68
2021/09/06 07:27:50;;;;;;;;;;;15.00;90.10;;;;;;5071123;28;19916;-68
2021/09/06 07:30:16;;;;;;;;;;;15.00;90.30;;;;;;5071006;28;19913;-68
2021/09/06 07:32:44;;;;;;;;;;;14.90;90.00;;;;;;5071355;28;20000;-68
2021/09/06 07:35:11;;;;;;;;;;;14.90;90.30;;;;;;5071104;28;20353;-68
2021/09/06 07:37:38;;;;;;;;;;;14.90;90.50;;;;;;5070951;28;19919;-68
2021/09/06 07:40:06;;;;;;;;;;;14.90;90.60;;;;;;5070980;28;19912;-68
2021/09/06 07:42:32;;;;;;;;;;;14.80;90.90;;;;;;5070967;28;19979;-67
2021/09/06 07:44:59;;;;;;;;;;;14.80;91.30;;;;;;5070763;28;19913;-68
2021/09/06 07:47:26;;;;;;;;;;;14.80;91.50;;;;;;5071068;28;19967;-68
2021/09/06 07:49:52;;;;;;;;;;;14.80;91.60;;;;;;5070557;28;19944;-68
2021/09/06 07:52:19;;;;;;;;;;;14.80;91.90;;;;;;5070729;28;19916;-69
2021/09/06 07:54:46;;;;;;;;;;;14.70;92.30;;;;;;5070755;28;20071;-69
2021/09/06 07:57:12;;;;;;;;;;;14.70;92.30;;;;;;5070308;28;19909;-69
2021/09/06 07:59:39;;;;;;;;;;;14.70;92.70;;;;;;5070548;28;20000;-69
2021/09/06 08:02:06;;;;;;;;;;;14.70;93.20;;;;;;5070762;28;20360;-69
2021/09/06 08:04:33;;;;;;;;;;;14.60;93.80;;;;;;5070319;28;20002;-69
2021/09/06 08:07:00;;;;;;;;;;;14.60;94.00;;;;;;5070816;28;19908;-69
2021/09/06 08:09:27;;;;;;;;;;;14.70;94.20;;;;;;5070277;28;19965;-69
2021/09/06 08:11:56;;;;;;;;;;;14.60;94.60;;;;;;5070333;28;19935;-69
2021/09/06 08:14:23;;;;;;;;;;;14.60;95.20;;;;;;5070594;28;19915;-69
2021/09/06 08:16:50;;;;;;;;;;;14.60;95.40;;;;;;5068921;28;20039;-69
2021/09/06 08:19:17;;;;;;;;;;;14.60;95.80;;;;;;5070322;28;19919;-69
2021/09/06 08:21:44;;;;;;;;;;;14.60;96.20;;;;;;5070117;28;20659;-70
2021/09/06 08:24:11;;;;;;;;;;;14.60;95.80;;;;;;5070208;28;20264;-70
2021/09/06 08:26:39;;;;;;;;;;;14.50;96.40;;;;;;5069750;28;19919;-70
2021/09/06 08:29:06;;;;;;;;;;;14.50;96.60;;;;;;5070649;28;19938;-68
2021/09/06 08:31:32;;;;;;;;;;;14.50;97.00;;;;;;5070053;28;19939;-68
2021/09/06 08:33:59;;;;;;;;;;;14.50;97.50;;;;;;5069819;28;19915;-68
2021/09/06 08:36:26;;;;;;;;;;;14.50;97.70;;;;;;5070022;28;19909;-68
2021/09/06 08:38:52;;;;;;;;;;;14.40;97.80;;;;;;5070243;28;19909;-68
2021/09/06 08:41:19;;;;;;;;;;;14.40;97.60;;;;;;5069727;28;20352;-68
2021/09/06 08:43:46;;;;;;;;;;;14.50;97.60;;;;;;5070004;28;20367;-69
2021/09/06 08:46:13;;;;;;;;;;;14.40;97.90;;;;;;5069847;28;19917;-68
2021/09/06 08:48:39;;;;;;;;;;;14.40;98.20;;;;;;5102048;28;19916;-69
2021/09/06 08:51:06;;;;;;;;;;;14.40;98.70;;;;;;5070295;28;19920;-69
2021/09/06 08:53:32;;;;;;;;;;;14.40;98.90;;;;;;5069984;28;19955;-69
2021/09/06 08:55:59;;;;;;;;;;;14.40;99.30;;;;;;5069551;28;19908;-68
2021/09/06 08:58:26;;;;;;;;;;;14.40;99.30;;;;;;5069974;28;19909;-68
2021/09/06 09:00:52;;;;;;;;;;;14.40;99.20;;;;;;5069348;28;20369;-69
2021/09/06 09:03:19;;;;;;;;;;;14.40;99.00;;;;;;5069796;28;19908;-68
2021/09/06 09:05:59;;;;;;;;;;;14.40;98.70;;;;;;5070755;28;19909;-68
2021/09/06 09:08:26;;;;;;;;;;;14.40;98.40;;;;;;5071992;28;19915;-68
2021/09/06 09:10:58;;;;;;;;;;;14.50;98.60;;;;;;5071344;28;19913;-68
2021/09/06 09:13:27;;;;;;;;;;;14.40;98.50;;;;;;5071815;28;20252;-69
2021/09/06 09:15:54;;;;;;;;;;;14.40;98.20;;;;;;5071620;28;19908;-69
2021/09/06 09:18:26;;;;;;;;;;;14.40;98.40;;;;;;5071713;28;19908;-69
2021/09/06 09:21:14;;;;;;;;;;;14.40;98.40;;;;;;5071843;28;19916;-69
2021/09/06 09:23:42;;;;;;;;;;;14.40;98.80;;;;;;5071723;28;19908;-69
2021/09/06 09:26:09;;;;;;;;;;;14.40;98.70;;;;;;5071316;28;19915;-69
2021/09/06 09:28:40;;;;;;;;;;;14.40;98.90;;;;;;5071706;28;19912;-69
2021/09/06 09:31:08;;;;;;;;;;;14.40;99.20;;;;;;5071264;28;19927;-70
2021/09/06 09:33:45;;;;;;;;;;;14.30;99.40;;;;;;5071451;28;20317;-69
2021/09/06 09:36:12;;;;;;;;;;;14.30;99.60;;;;;;5071814;28;19961;-69
2021/09/06 09:38:40;;;;;;;;;;;14.30;99.80;;;;;;5071690;28;19943;-69
2021/09/06 09:41:16;;;;;;;;;;;14.30;99.90;;;;;;5070508;28;19908;-69
2021/09/06 09:43:43;;;;;;;;;;;14.20;99.90;;;;;;5071485;28;20309;-69
2021/09/06 09:46:10;;;;;;;;;;;14.20;99.90;;;;;;5071501;28;19932;-69
2021/09/06 09:48:36;;;;;;;;;;;14.20;99.90;;;;;;5072773;28;19987;-69
2021/09/06 09:51:03;;;;;;;;;;;14.30;99.90;;;;;;5075042;28;19917;-69
2021/09/06 09:53:30;;;;;;;;;;;14.30;99.90;;;;;;5074987;28;20325;-69
2021/09/06 09:55:57;;;;;;;;;;;14.30;99.90;;;;;;5075029;28;20267;-69
2021/09/06 09:58:24;;;;;;;;;;;14.20;99.90;;;;;;5075264;28;19908;-69
2021/09/06 10:00:50;;;;;;;;;;;14.20;99.90;;;;;;5075207;28;19912;-69
2021/09/06 10:03:22;;;;;;;;;;;14.20;99.90;;;;;;5074949;28;19912;-69
2021/09/06 10:05:49;;;;;;;;;;;14.20;99.90;;;;;;5075036;28;20422;-69
2021/09/06 10:08:17;;;;;;;;;;;14.20;99.90;;;;;;5075042;28;20351;-69
2021/09/06 10:10:44;;;;;;;;;;;14.10;99.90;;;;;;5074867;28;19923;-69
2021/09/06 10:13:12;;;;;;;;;;;14.10;99.90;;;;;;5075012;28;20432;-69
2021/09/06 10:15:40;;;;;;;;;;;14.10;99.90;;;;;;5074786;28;19952;-69
2021/09/06 10:18:15;;;;;;;;;;;14.10;99.90;;;;;;5074563;28;19913;-70
2021/09/06 10:20:42;;;;;;;;;;;14.00;99.90;;;;;;5074822;28;19967;-69
2021/09/06 10:23:11;;;;;;;;;;;14.00;99.90;;;;;;5074856;28;20256;-69
2021/09/06 10:25:38;;;;;;;;;;;14.00;99.90;;;;;;5074485;28;19909;-69
2021/09/06 10:28:06;;;;;;;;;;;13.90;99.90;;;;;;5074500;28;19915;-69
2021/09/06 10:30:52;;;;;;;;;;;13.90;99.90;;;;;;5074477;28;19913;-69
2021/09/06 10:33:32;;;;;;;;;;;13.80;99.90;;;;;;5074466;28;19913;-69
2021/09/06 10:36:13;;;;;;;;;;;13.80;99.90;;;;;;5074382;28;20279;-69
2021/09/06 10:38:41;;;;;;;;;;;13.80;99.90;;;;;;5074407;28;19909;-69
2021/09/06 10:41:09;;;;;;;;;;;13.90;99.90;;;;;;5074330;28;19934;-70
2021/09/06 10:43:43;;;;;;;;;;;13.80;99.90;;;;;;5074120;28;19920;-69
2021/09/06 10:46:09;;;;;;;;;;;13.80;99.90;;;;;;5073437;28;20367;-69
2021/09/06 10:48:36;;;;;;;;;;;13.80;99.90;;;;;;5074020;28;19908;-69
2021/09/06 10:51:04;;;;;;;;;;;13.70;99.90;;;;;;5073978;28;19919;-69
2021/09/06 10:53:30;;;;;;;;;;;13.70;99.90;;;;;;5073912;28;20008;-69
2021/09/06 10:55:58;;;;;;;;;;;13.70;99.90;;;;;;5074305;28;19912;-69
2021/09/06 10:58:26;;;;;;;;;;;13.60;99.90;;;;;;5075484;28;20355;-69
2021/09/06 11:00:54;;;;;;;;;;;13.60;99.90;;;;;;5092616;28;19939;-68
2021/09/06 11:03:21;;;;;;;;;;;13.60;99.90;;;;;;5093415;28;19923;-68
2021/09/06 11:05:52;;;;;;;;;;;13.60;99.90;;;;;;5093993;28;19915;-69
2021/09/06 11:08:30;;;;;;;;;;;13.60;99.90;;;;;;5093676;28;19929;-69
2021/09/06 11:10:58;;;;;;;;;;;13.50;99.90;;;;;;5094233;28;19917;-69
2021/09/06 11:13:34;;;;;;;;;;;13.50;99.90;;;;;;5094109;28;19922;-69
2021/09/06 11:16:02;;;;;;;;;;;13.40;99.90;;;;;;5093764;28;20369;-70
2021/09/06 11:18:32;;;;;;;;;;;13.40;99.90;;;;;;5093969;28;19908;-68
2021/09/06 11:21:00;;;;;;;;;;;13.30;99.90;;;;;;5095342;28;19908;-68
2021/09/06 11:23:31;;;;;;;;;;;13.30;99.90;;;;;;5094859;28;20324;-69
2021/09/06 11:25:58;;;;;;;;;;;13.20;99.90;;;;;;5093853;28;19919;-68
2021/09/06 11:28:24;;;;;;;;;;;13.30;99.90;;;;;;5093729;28;19923;-69
2021/09/06 11:30:51;;;;;;;;;;;13.20;99.90;;;;;;5092895;28;19913;-69
2021/09/06 11:33:18;;;;;;;;;;;13.20;99.90;;;;;;5093347;28;19908;-69
2021/09/06 11:35:46;;;;;;;;;;;13.20;99.90;;;;;;5093368;28;19914;-68
2021/09/06 11:38:14;;;;;;;;;;;13.20;99.90;;;;;;5093509;28;20373;-69
2021/09/06 11:40:41;;;;;;;;;;;13.10;99.90;;;;;;5093374;28;19912;-69
2021/09/06 11:43:08;;;;;;;;;;;13.10;99.90;;;;;;5093437;28;19969;-69
2021/09/06 11:45:36;;;;;;;;;;;13.10;99.90;;;;;;5092554;28;20398;-69
2021/09/06 11:48:04;;;;;;;;;;;13.00;99.90;;;;;;5093171;28;20298;-69
2021/09/06 11:50:32;;;;;;;;;;;13.00;99.90;;;;;;5093246;28;19916;-69
2021/09/06 11:52:59;;;;;;;;;;;12.90;99.90;;;;;;5093078;28;20426;-69
2021/09/06 11:55:26;;;;;;;;;;;12.90;99.90;;;;;;5093359;28;19908;-69
2021/09/06 11:57:53;;;;;;;;;;;12.80;99.90;;;;;;5092906;28;19959;-69
2021/09/06 12:00:20;;;;;;;;;;;12.80;99.90;;;;;;5092527;28;19932;-68
2021/09/06 12:02:47;;;;;;;;;;;12.80;99.90;;;;;;5093013;28;19908;-68
2021/09/06 12:05:17;;;;;;;;;;;12.70;99.90;;;;;;5092863;28;19915;-68
2021/09/06 12:07:54;;;;;;;;;;;12.70;99.90;;;;;;5092694;28;19970;-69
2021/09/06 12:10:38;;;;;;;;;;;12.70;99.90;;;;;;5092718;28;19958;-68
2021/09/06 12:13:09;;;;;;;;;;;12.70;99.90;;;;;;5092862;28;19924;-68
2021/09/06 12:15:50;;;;;;;;;;;12.70;99.90;;;;;;5092152;28;19916;-68
2021/09/06 12:18:17;;;;;;;;;;;12.70;99.90;;;;;;5092719;28;19953;-68
2021/09/06 12:20:44;;;;;;;;;;;12.60;99.90;;;;;;5092971;28;19916;-68
2021/09/06 12:23:13;;;;;;;;;;;12.60;99.90;;;;;;5091520;28;19913;-68
2021/09/06 12:25:41;;;;;;;;;;;12.60;99.90;;;;;;5092325;28;19919;-68
2021/09/06 12:28:14;;;;;;;;;;;12.60;99.90;;;;;;5092602;28;19916;-68
2021/09/06 12:30:42;;;;;;;;;;;12.60;99.90;;;;;;5092258;28;20322;-69
2021/09/06 12:33:10;;;;;;;;;;;12.50;99.90;;;;;;5092346;28;20000;-68
2021/09/06 12:35:38;;;;;;;;;;;12.50;99.90;;;;;;5090993;28;19912;-69
2021/09/06 12:38:05;;;;;;;;;;;12.40;99.90;;;;;;5092603;28;19915;-69
2021/09/06 12:40:31;;;;;;;;;;;12.40;99.90;;;;;;5092505;28;19915;-69
2021/09/06 12:42:58;;;;;;;;;;;12.40;99.90;;;;;;5092561;28;20377;-68
2021/09/06 12:45:25;;;;;;;;;;;12.40;99.90;;;;;;5092068;28;19908;-69
2021/09/06 12:47:51;;;;;;;;;;;12.40;99.90;;;;;;5092209;28;20007;-69
2021/09/06 12:50:18;;;;;;;;;;;12.40;99.90;;;;;;5092427;28;20347;-69
2021/09/06 12:52:45;;;;;;;;;;;12.40;99.90;;;;;;5092322;28;19915;-69
2021/09/06 12:55:12;;;;;;;;;;;12.40;99.90;;;;;;5092311;28;19938;-69
2021/09/06 12:57:38;;;;;;;;;;;12.30;99.90;;;;;;5092028;28;19908;-69
2021/09/06 13:00:05;;;;;;;;;;;12.30;99.90;;;;;;5091687;28;20275;-69
2021/09/06 13:02:32;;;;;;;;;;;12.30;99.90;;;;;;5092093;28;20432;-69
2021/09/06 13:04:59;;;;;;;;;;;12.30;99.90;;;;;;5092602;28;19909;-69
2021/09/06 13:07:26;;;;;;;;;;;12.30;99.90;;;;;;5092444;28;19908;-69
2021/09/06 13:09:53;;;;;;;;;;;12.30;99.90;;;;;;5092153;28;19908;-69
2021/09/06 13:12:20;;;;;;;;;;;12.20;99.90;;;;;;5092172;28;19962;-69
2021/09/06 13:14:46;;;;;;;;;;;12.20;99.90;;;;;;5091457;28;19923;-69
2021/09/06 13:17:13;;;;;;;;;;;12.20;99.90;;;;;;5092067;28;19934;-69
2021/09/06 13:19:40;;;;;;;;;;;12.30;99.90;;;;;;5092063;28;20382;-69
2021/09/06 13:22:06;;;;;;;;;;;12.20;99.90;;;;;;5092105;28;20045;-69
2021/09/06 13:24:33;;;;;;;;;;;12.20;99.90;;;;;;5094909;28;20015;-69
2021/09/06 13:27:00;;;;;;;;;;;12.20;99.90;;;;;;5095960;28;19912;-69
2021/09/06 13:29:27;;;;;;;;;;;12.20;99.90;;;;;;5096109;28;19908;-69
2021/09/06 13:31:54;;;;;;;;;;;12.20;99.90;;;;;;5095521;28;20019;-69
2021/09/06 13:34:20;;;;;;;;;;;12.10;99.90;;;;;;5095858;28;19938;-69
2021/09/06 13:36:47;;;;;;;;;;;12.10;99.90;;;;;;5095852;28;19908;-69
2021/09/06 13:39:13;;;;;;;;;;;12.10;99.90;;;;;;5095978;28;19916;-69
2021/09/06 13:41:40;;;;;;;;;;;12.10;99.90;;;;;;5095594;28;19912;-69
2021/09/06 13:44:07;;;;;;;;;;;12.00;99.90;;;;;;5095773;28;19947;-69
2021/09/06 13:46:33;;;;;;;;;;;12.00;99.90;;;;;;5095409;28;19920;-70
2021/09/06 13:49:00;;;;;;;;;;;12.00;99.90;;;;;;5094523;28;19934;-69
2021/09/06 13:51:27;;;;;;;;;;;12.00;99.90;;;;;;5095591;28;20390;-69
2021/09/06 13:53:53;;;;;;;;;;;12.00;99.90;;;;;;5095335;28;19972;-69
2021/09/06 13:56:20;;;;;;;;;;;12.00;99.90;;;;;;5095545;28;20263;-69
2021/09/06 13:58:47;;;;;;;;;;;11.90;99.90;;;;;;5095282;28;20369;-69
2021/09/06 14:01:14;;;;;;;;;;;11.90;99.90;;;;;;5095448;28;19952;-69
2021/09/06 14:03:41;;;;;;;;;;;11.90;99.90;;;;;;5093662;28;20014;-69
2021/09/06 14:06:07;;;;;;;;;;;11.80;99.90;;;;;;5095184;28;19908;-69
2021/09/06 14:08:34;;;;;;;;;;;11.80;99.90;;;;;;5095309;28;20252;-69
2021/09/06 14:11:00;;;;;;;;;;;11.80;99.90;;;;;;5095358;28;19952;-69
2021/09/06 14:13:27;;;;;;;;;;;11.80;99.90;;;;;;5095066;28;19908;-69
2021/09/06 14:15:54;;;;;;;;;;;11.90;99.90;;;;;;5094889;28;19908;-68
2021/09/06 14:18:21;;;;;;;;;;;11.80;99.90;;;;;;5094844;28;20002;-69